Terminal Aerodrome Forecast
Issued by NWS Tampa Bay Area, FL

Home | Current Version | Previous Version | Text Only | Print | Product List | Glossary On
Versions: 1 2 3 4 5 6 7 8 9 10 11 12 13 14 15 16
955
FTUS42 KTBW 241723
TAFSRQ
TAF
KSRQ 241723Z 2418/2518 22023G32KT P6SM SHRA VCTS SCT025CB OVC050
      TEMPO 2419/2423 VRB30G40KT 3SM +TSRA BKN020CB
     FM250000 23022G31KT P6SM VCTS SCT025CB OVC050
     FM250300 24018G28KT P6SM SHRA VCTS SCT025CB OVC050
     FM250900 26017G27KT P6SM VCSH SCT015 OVC025
     FM251300 27015G25KT P6SM SCT025 BKN035 OVC050
     FM251600 28017G26KT P6SM SCT030 BKN050=

USA.gov is the U.S. government's official web portal to all federal, state and local government web resources and services.